RJSO(METAR)
12/11 17:00
METAR RJSO 110800Z VRB01KT 9999 FEW015 SCT040 BKN200 00/M05 Q1027
RMK 1CU015 3CU040 A3033=
戻る
トップページへ戻る
IMOC Co,.Ltd.